createdAt,value
2019-03-27T00:00:45.343Z,5.20
2019-03-27T00:03:13.503Z,5.20
2019-03-27T00:05:42.309Z,5.30
2019-03-27T00:08:10.411Z,5.20
2019-03-27T00:10:38.539Z,5.10
2019-03-27T00:13:06.677Z,5.10
2019-03-27T00:15:34.797Z,5.10
2019-03-27T00:18:03.519Z,5.20
2019-03-27T00:20:31.637Z,5.10
2019-03-27T00:22:59.857Z,5.20
2019-03-27T00:25:28.017Z,5.20
2019-03-27T00:28:03.721Z,5.30
2019-03-27T00:30:31.839Z,5.30
2019-03-27T00:32:59.936Z,5.30
2019-03-27T00:35:28.256Z,5.40
2019-03-27T00:37:56.325Z,5.30
2019-03-27T00:40:24.527Z,5.30
2019-03-27T00:42:52.675Z,5.30
2019-03-27T00:45:26.368Z,5.20
2019-03-27T00:47:50.766Z,5.30
2019-03-27T00:50:18.903Z,5.20
2019-03-27T00:52:46.970Z,5.30
2019-03-27T00:55:15.076Z,5.30
2019-03-27T00:57:43.391Z,5.30
2019-03-27T01:00:19.035Z,5.30
2019-03-27T01:02:47.666Z,5.20
2019-03-27T01:05:15.810Z,5.10
2019-03-27T01:07:43.953Z,5.10
2019-03-27T01:10:12.281Z,5.00
2019-03-27T01:12:40.377Z,5.00
2019-03-27T01:15:09.199Z,5.00
2019-03-27T01:17:44.643Z,5.00
2019-03-27T01:20:13.709Z,5.00
2019-03-27T01:22:41.794Z,5.00
2019-03-27T01:25:10.008Z,5.00
2019-03-27T01:27:47.399Z,5.00
2019-03-27T01:30:15.613Z,5.00
2019-03-27T01:32:43.711Z,5.00
2019-03-27T01:35:11.720Z,5.00
2019-03-27T01:37:42.760Z,5.00
2019-03-27T01:40:10.988Z,5.00
2019-03-27T01:42:39.073Z,4.90
2019-03-27T01:45:07.276Z,4.80
2019-03-27T01:47:36.344Z,4.70
2019-03-27T01:50:05.158Z,4.60
2019-03-27T01:52:33.174Z,4.60
2019-03-27T01:55:01.264Z,4.60
2019-03-27T01:57:35.598Z,4.50
2019-03-27T02:00:04.996Z,4.50
2019-03-27T02:02:33.103Z,4.50
2019-03-27T02:05:01.162Z,4.40
2019-03-27T02:07:39.344Z,4.30
2019-03-27T02:10:08.518Z,4.20
2019-03-27T02:12:36.533Z,4.20
2019-03-27T02:15:05.718Z,4.20
2019-03-27T02:17:33.860Z,4.20
2019-03-27T02:20:01.938Z,4.20
2019-03-27T02:22:30.068Z,4.20
2019-03-27T02:24:58.172Z,4.10
2019-03-27T02:27:28.492Z,4.10
2019-03-27T02:29:56.606Z,4.10
2019-03-27T02:32:24.804Z,4.10
2019-03-27T02:34:52.882Z,4.00
2019-03-27T02:37:20.967Z,4.00
2019-03-27T02:39:49.086Z,3.90
2019-03-27T02:42:17.130Z,3.90
2019-03-27T02:44:45.310Z,3.90
2019-03-27T02:47:19.698Z,3.90
2019-03-27T02:49:47.839Z,3.90
2019-03-27T02:52:15.986Z,3.80
2019-03-27T02:54:44.116Z,3.70
2019-03-27T02:57:12.121Z,3.80
2019-03-27T02:59:40.232Z,3.80
2019-03-27T03:02:08.346Z,3.90
2019-03-27T03:04:36.472Z,3.90
2019-03-27T03:07:04.583Z,3.90
2019-03-27T03:09:32.709Z,3.90
2019-03-27T03:12:00.790Z,3.90
2019-03-27T03:14:28.928Z,3.90
2019-03-27T03:16:59.170Z,3.90
2019-03-27T03:19:27.297Z,4.00
2019-03-27T03:21:55.391Z,4.00
2019-03-27T03:24:23.495Z,4.00
2019-03-27T03:27:00.711Z,4.10
2019-03-27T03:29:28.975Z,4.00
2019-03-27T03:31:57.038Z,4.10
2019-03-27T03:34:25.136Z,4.10
2019-03-27T03:36:53.945Z,4.20
2019-03-27T03:39:22.058Z,4.20
2019-03-27T03:41:50.277Z,4.20
2019-03-27T03:44:18.709Z,4.20
2019-03-27T03:46:59.448Z,4.20
2019-03-27T03:49:16.721Z,4.20
2019-03-27T03:51:44.870Z,4.20
2019-03-27T03:54:13.691Z,4.20
2019-03-27T03:56:42.907Z,4.20
2019-03-27T03:59:19.679Z,4.30
2019-03-27T04:01:49.669Z,4.40
2019-03-27T04:04:20.585Z,4.50
2019-03-27T04:06:48.681Z,4.50
2019-03-27T04:09:16.796Z,4.50
2019-03-27T04:11:44.888Z,4.60
2019-03-27T04:14:12.978Z,4.60
2019-03-27T04:16:41.072Z,4.50
2019-03-27T04:19:09.162Z,4.60
2019-03-27T04:21:37.898Z,4.70
2019-03-27T04:24:06.086Z,4.70
2019-03-27T04:26:34.266Z,4.70
2019-03-27T04:29:02.308Z,4.70
2019-03-27T04:31:30.419Z,4.70
2019-03-27T04:33:58.867Z,4.70
2019-03-27T04:36:26.984Z,4.70
2019-03-27T04:38:56.095Z,4.70
2019-03-27T04:41:24.228Z,4.70
2019-03-27T04:43:52.382Z,4.70
2019-03-27T04:46:20.910Z,4.70
2019-03-27T04:48:49.035Z,4.70
2019-03-27T04:51:17.250Z,4.80
2019-03-27T04:53:45.415Z,4.70
2019-03-27T04:56:13.544Z,4.70
2019-03-27T04:58:41.665Z,4.80
2019-03-27T05:01:09.769Z,4.80
2019-03-27T05:03:37.858Z,4.70
2019-03-27T05:06:06.127Z,4.80
2019-03-27T05:08:35.250Z,4.70
2019-03-27T05:11:03.401Z,4.80
2019-03-27T05:13:31.514Z,4.70
2019-03-27T05:15:59.545Z,4.70
2019-03-27T05:18:33.813Z,4.70
2019-03-27T05:21:01.896Z,4.70
2019-03-27T05:23:29.962Z,4.70
2019-03-27T05:25:58.137Z,4.70
2019-03-27T05:28:26.934Z,4.70
2019-03-27T05:30:55.171Z,4.70
2019-03-27T05:33:23.249Z,4.80
2019-03-27T05:35:51.748Z,4.80
2019-03-27T05:38:19.938Z,4.90
2019-03-27T05:40:48.399Z,4.90
2019-03-27T05:43:16.544Z,4.90
2019-03-27T05:45:44.829Z,4.90
2019-03-27T05:48:33.003Z,4.90
2019-03-27T05:51:01.138Z,5.00
2019-03-27T05:53:29.974Z,5.00
2019-03-27T05:55:58.041Z,5.00
2019-03-27T05:58:43.509Z,5.00
2019-03-27T06:01:11.740Z,5.00
2019-03-27T06:03:43.081Z,5.10
2019-03-27T06:06:11.259Z,5.20
2019-03-27T06:08:43.845Z,5.20
2019-03-27T06:11:25.258Z,5.20
2019-03-27T06:13:56.516Z,5.30
2019-03-27T06:16:24.698Z,5.40
2019-03-27T06:18:52.846Z,5.40
2019-03-27T06:21:21.022Z,5.50
2019-03-27T06:23:49.214Z,5.60
2019-03-27T06:26:18.573Z,5.60
2019-03-27T06:28:57.442Z,5.70
2019-03-27T06:31:27.069Z,5.70
2019-03-27T06:33:55.590Z,5.80
2019-03-27T06:36:24.072Z,5.90
2019-03-27T06:38:52.306Z,6.00
2019-03-27T06:41:20.473Z,6.10
2019-03-27T06:43:48.634Z,6.20
2019-03-27T06:46:16.804Z,6.20
2019-03-27T06:48:44.944Z,6.30
2019-03-27T06:51:12.956Z,6.40
2019-03-27T06:53:41.233Z,6.40
2019-03-27T06:56:10.740Z,6.40
2019-03-27T06:58:38.807Z,6.50
2019-03-27T07:01:06.964Z,6.60
2019-03-27T07:03:35.211Z,6.60
2019-03-27T07:06:03.388Z,6.70
2019-03-27T07:08:38.652Z,6.80
2019-03-27T07:11:06.824Z,6.80
2019-03-27T07:13:35.749Z,7.00
2019-03-27T07:16:03.881Z,7.10
2019-03-27T07:18:40.707Z,7.20
2019-03-27T07:21:08.988Z,7.20
2019-03-27T07:23:37.329Z,7.30
2019-03-27T07:26:05.508Z,7.30
2019-03-27T07:28:40.740Z,7.40
2019-03-27T07:31:09.036Z,7.50
2019-03-27T07:33:37.308Z,7.60
2019-03-27T07:36:05.870Z,7.60
2019-03-27T07:38:34.003Z,7.70
2019-03-27T07:41:02.542Z,7.80
2019-03-27T07:43:30.823Z,7.80
2019-03-27T07:45:59.796Z,7.80
2019-03-27T07:48:27.993Z,7.80
2019-03-27T07:50:56.238Z,7.80
2019-03-27T07:53:24.506Z,7.80
2019-03-27T07:55:52.680Z,7.90
2019-03-27T07:58:25.885Z,7.90
2019-03-27T08:00:54.053Z,7.80
2019-03-27T08:03:22.237Z,7.80
2019-03-27T08:05:50.498Z,7.80
2019-03-27T08:08:23.976Z,7.90
2019-03-27T08:10:52.019Z,7.90
2019-03-27T08:13:20.237Z,8.00
2019-03-27T08:15:48.459Z,8.10
2019-03-27T08:18:19.633Z,8.20
2019-03-27T08:20:47.861Z,8.30
2019-03-27T08:23:16.144Z,8.40
2019-03-27T08:25:44.327Z,8.40
2019-03-27T08:28:12.591Z,8.50
2019-03-27T08:30:40.749Z,8.60
2019-03-27T08:33:08.874Z,8.60
2019-03-27T08:35:37.185Z,8.60
2019-03-27T08:38:05.787Z,8.60
2019-03-27T08:40:34.159Z,8.60
2019-03-27T08:43:02.255Z,8.70
2019-03-27T08:45:30.401Z,8.80
2019-03-27T08:48:02.931Z,9.00
2019-03-27T08:50:31.682Z,9.10
2019-03-27T08:53:00.057Z,9.20
2019-03-27T08:55:28.231Z,9.40
2019-03-27T08:57:56.401Z,9.50
2019-03-27T09:00:47.710Z,9.70
2019-03-27T09:03:16.543Z,9.90
2019-03-27T09:05:44.945Z,9.90
2019-03-27T09:08:16.471Z,9.90
2019-03-27T09:10:44.941Z,10.00
2019-03-27T09:13:13.127Z,10.00
2019-03-27T09:15:41.437Z,10.10
2019-03-27T09:18:11.797Z,10.20
2019-03-27T09:20:39.959Z,10.40
2019-03-27T09:23:08.107Z,10.40
2019-03-27T09:25:36.273Z,10.50
2019-03-27T09:28:05.396Z,10.60
2019-03-27T09:30:33.580Z,10.60
2019-03-27T09:33:01.825Z,10.70
2019-03-27T09:35:30.133Z,10.80
2019-03-27T09:38:03.093Z,10.80
2019-03-27T09:40:31.352Z,10.80
2019-03-27T09:42:59.533Z,10.80
2019-03-27T09:45:27.862Z,10.90
2019-03-27T09:47:59.122Z,10.80
2019-03-27T09:50:27.293Z,10.80
2019-03-27T09:52:55.459Z,11.00
2019-03-27T09:55:23.938Z,11.30
2019-03-27T09:57:51.992Z,11.40
2019-03-27T10:00:47.196Z,11.60
2019-03-27T10:03:15.324Z,11.70
2019-03-27T10:05:44.577Z,11.90
2019-03-27T10:08:12.776Z,12.10
2019-03-27T10:10:40.955Z,12.00
2019-03-27T10:13:09.134Z,12.20
2019-03-27T10:15:37.236Z,12.40
2019-03-27T10:18:08.346Z,12.30
2019-03-27T10:20:39.289Z,12.40
2019-03-27T10:23:07.575Z,12.50
2019-03-27T10:25:35.760Z,12.40
2019-03-27T10:28:24.931Z,12.30
2019-03-27T10:30:53.130Z,11.90
2019-03-27T10:33:22.105Z,11.70
2019-03-27T10:35:50.299Z,11.50
2019-03-27T10:38:18.412Z,11.50
2019-03-27T10:40:46.752Z,11.40
2019-03-27T10:43:14.959Z,11.40
2019-03-27T10:45:45.310Z,11.40
2019-03-27T10:48:16.497Z,11.30
2019-03-27T10:50:44.640Z,11.40
2019-03-27T10:53:13.325Z,11.50
2019-03-27T10:55:42.210Z,11.60
2019-03-27T10:58:10.408Z,11.80
2019-03-27T11:00:38.477Z,11.70
2019-03-27T11:03:06.504Z,11.60
2019-03-27T11:05:34.661Z,11.60
2019-03-27T11:08:14.845Z,11.70
2019-03-27T11:10:42.977Z,11.90
2019-03-27T11:13:11.582Z,12.00
2019-03-27T11:15:39.758Z,11.80
2019-03-27T11:18:09.010Z,11.80
2019-03-27T11:20:37.253Z,11.70
2019-03-27T11:23:05.483Z,11.50
2019-03-27T11:25:33.616Z,11.40
2019-03-27T11:28:04.873Z,11.20
2019-03-27T11:30:40.294Z,11.00
2019-03-27T11:33:11.235Z,11.00
2019-03-27T11:35:40.270Z,11.00
2019-03-27T11:38:15.080Z,10.90
2019-03-27T11:40:44.545Z,10.90
2019-03-27T11:43:15.555Z,10.90
2019-03-27T11:45:45.223Z,11.00
2019-03-27T11:48:22.069Z,11.00
2019-03-27T11:50:51.741Z,11.10
2019-03-27T11:53:19.865Z,11.20
2019-03-27T11:55:54.446Z,11.10
2019-03-27T11:58:25.716Z,11.10
2019-03-27T12:01:01.535Z,11.30
2019-03-27T12:03:30.029Z,11.30
2019-03-27T12:05:59.046Z,11.40
2019-03-27T12:08:27.205Z,11.40
2019-03-27T12:10:55.347Z,11.40
2019-03-27T12:13:23.533Z,11.40
2019-03-27T12:15:54.694Z,11.40
2019-03-27T12:18:23.542Z,11.50
2019-03-27T12:20:59.835Z,11.60
2019-03-27T12:23:31.091Z,11.70
2019-03-27T12:25:59.305Z,11.80
2019-03-27T12:28:32.372Z,11.90
2019-03-27T12:31:00.741Z,12.00
2019-03-27T12:33:29.062Z,12.10
2019-03-27T12:35:57.194Z,12.20
2019-03-27T12:38:41.347Z,12.20
2019-03-27T12:41:09.532Z,12.20
2019-03-27T12:43:40.349Z,12.30
2019-03-27T12:46:08.638Z,12.20
2019-03-27T12:48:37.341Z,12.10
2019-03-27T12:51:12.575Z,12.00
2019-03-27T12:53:35.565Z,11.90
2019-03-27T12:56:03.925Z,11.90
2019-03-27T12:58:32.064Z,11.80
2019-03-27T13:01:00.251Z,11.80
2019-03-27T13:03:28.421Z,11.90
2019-03-27T13:05:56.751Z,11.90
2019-03-27T13:08:37.249Z,12.10
2019-03-27T13:11:06.507Z,12.30
2019-03-27T13:13:34.665Z,12.30
2019-03-27T13:16:02.883Z,12.40
2019-03-27T13:18:31.078Z,12.50
2019-03-27T13:20:59.241Z,12.50
2019-03-27T13:23:27.414Z,12.40
2019-03-27T13:25:55.562Z,12.40
2019-03-27T13:28:27.657Z,12.60
2019-03-27T13:30:55.951Z,12.50
2019-03-27T13:33:24.601Z,12.40
2019-03-27T13:35:52.781Z,12.50
2019-03-27T13:38:24.003Z,12.60
2019-03-27T13:40:52.414Z,12.80
2019-03-27T13:43:20.630Z,12.90
2019-03-27T13:45:52.541Z,12.90
2019-03-27T13:48:28.003Z,12.80
2019-03-27T13:50:56.357Z,12.80
2019-03-27T13:53:24.569Z,12.90
2019-03-27T13:55:52.772Z,13.10
2019-03-27T13:58:21.325Z,13.40
2019-03-27T14:00:49.568Z,13.30
2019-03-27T14:03:17.737Z,13.00
2019-03-27T14:05:47.049Z,13.00
2019-03-27T14:08:30.486Z,12.90
2019-03-27T14:11:01.828Z,12.90
2019-03-27T14:13:34.601Z,12.80
2019-03-27T14:16:03.000Z,12.70
2019-03-27T14:18:40.583Z,12.70
2019-03-27T14:21:11.345Z,12.70
2019-03-27T14:23:40.151Z,12.60
2019-03-27T14:26:08.341Z,12.60
2019-03-27T14:31:31.963Z,12.60
2019-03-27T14:34:00.108Z,12.70
2019-03-27T14:36:30.229Z,12.80
2019-03-27T14:39:15.898Z,12.80
2019-03-27T14:41:44.317Z,12.90
2019-03-27T14:44:12.460Z,12.80
2019-03-27T14:46:40.661Z,12.60
2019-03-27T14:49:27.684Z,12.50
2019-03-27T14:52:07.682Z,12.40
2019-03-27T14:54:25.931Z,12.50
2019-03-27T14:56:54.182Z,12.50
2019-03-27T14:59:22.336Z,12.50
2019-03-27T15:01:50.549Z,12.60
2019-03-27T15:04:23.160Z,12.70
2019-03-27T15:06:51.364Z,12.70
2019-03-27T15:09:22.224Z,12.70
2019-03-27T15:11:50.406Z,12.70
2019-03-27T15:14:18.744Z,12.80
2019-03-27T15:16:46.949Z,12.80
2019-03-27T15:19:27.415Z,12.80
2019-03-27T15:21:58.019Z,12.70
2019-03-27T15:24:26.216Z,12.60
2019-03-27T15:26:54.414Z,12.60
2019-03-27T15:29:22.805Z,12.50
2019-03-27T15:31:51.077Z,12.50
2019-03-27T15:34:19.322Z,12.50
2019-03-27T15:36:47.647Z,12.50
2019-03-27T15:39:15.834Z,12.40
2019-03-27T15:41:43.971Z,12.40
2019-03-27T15:44:12.209Z,12.30
2019-03-27T15:46:40.377Z,12.30
2019-03-27T15:49:11.603Z,12.20
2019-03-27T15:51:39.962Z,12.20
2019-03-27T15:54:10.762Z,12.20
2019-03-27T15:56:39.019Z,12.30
2019-03-27T15:59:08.868Z,12.30
2019-03-27T16:01:37.001Z,12.40
2019-03-27T16:04:05.259Z,12.40
2019-03-27T16:06:33.444Z,12.50
2019-03-27T16:09:06.622Z,12.50
2019-03-27T16:11:38.908Z,12.60
2019-03-27T16:14:07.112Z,12.50
2019-03-27T16:16:35.604Z,12.50
2019-03-27T16:19:07.427Z,12.50
2019-03-27T16:21:37.831Z,12.50
2019-03-27T16:24:06.894Z,12.60
2019-03-27T16:26:37.502Z,12.60
2019-03-27T16:29:20.811Z,12.60
2019-03-27T16:31:49.862Z,12.60
2019-03-27T16:34:18.120Z,12.50
2019-03-27T16:36:46.266Z,12.40
2019-03-27T16:39:22.917Z,12.30
2019-03-27T16:41:52.935Z,12.20
2019-03-27T16:44:21.813Z,12.20
2019-03-27T16:46:49.926Z,12.20
2019-03-27T16:49:18.205Z,12.20
2019-03-27T16:51:46.462Z,12.10
2019-03-27T16:54:14.641Z,12.10
2019-03-27T16:56:42.822Z,12.00
2019-03-27T16:59:16.787Z,12.00
2019-03-27T17:01:49.819Z,12.00
2019-03-27T17:04:17.931Z,12.00
2019-03-27T17:06:46.060Z,12.00
2019-03-27T17:09:19.185Z,11.90
2019-03-27T17:11:47.835Z,11.90
2019-03-27T17:14:16.115Z,11.90
2019-03-27T17:16:44.388Z,11.80
2019-03-27T17:19:13.828Z,11.80
2019-03-27T17:21:41.920Z,11.80
2019-03-27T17:24:10.229Z,11.80
2019-03-27T17:26:38.449Z,11.70
2019-03-27T17:29:16.007Z,11.70
2019-03-27T17:31:44.264Z,11.70
2019-03-27T17:34:12.831Z,11.70
2019-03-27T17:36:41.071Z,11.60
2019-03-27T17:39:15.459Z,11.50
2019-03-27T17:41:44.043Z,11.50
2019-03-27T17:44:12.778Z,11.50
2019-03-27T17:46:40.913Z,11.40
2019-03-27T17:49:09.212Z,11.40
2019-03-27T17:51:38.091Z,11.30
2019-03-27T17:54:19.655Z,11.20
2019-03-27T17:56:36.834Z,11.20
2019-03-27T17:59:08.078Z,11.20
2019-03-27T18:01:36.455Z,11.20
2019-03-27T18:04:04.697Z,11.20
2019-03-27T18:06:32.962Z,11.10
2019-03-27T18:09:13.152Z,11.10
2019-03-27T18:11:41.572Z,11.20
2019-03-27T18:14:11.043Z,11.20
2019-03-27T18:16:39.175Z,11.10
2019-03-27T18:19:13.548Z,11.10
2019-03-27T18:21:41.862Z,11.10
2019-03-27T18:24:10.025Z,11.10
2019-03-27T18:26:38.186Z,11.00
2019-03-27T18:29:21.489Z,11.10
2019-03-27T18:31:53.590Z,11.00
2019-03-27T18:34:24.190Z,11.00
2019-03-27T18:36:55.670Z,10.90
2019-03-27T18:39:24.159Z,10.90
2019-03-27T18:41:52.328Z,10.80
2019-03-27T18:44:20.534Z,10.80
2019-03-27T18:46:51.433Z,10.80
2019-03-27T18:49:19.602Z,10.80
2019-03-27T18:52:00.091Z,10.80
2019-03-27T18:54:34.257Z,10.90
2019-03-27T19:01:19.856Z,10.80
2019-03-27T19:04:05.798Z,10.90
2019-03-27T19:06:53.284Z,10.90
2019-03-27T19:09:32.922Z,10.90
2019-03-27T19:12:14.618Z,10.90
2019-03-27T19:14:39.644Z,10.90
2019-03-27T19:17:16.985Z,10.90
2019-03-27T19:20:55.188Z,10.80
2019-03-27T19:23:12.984Z,10.90
2019-03-27T19:25:50.111Z,10.80
2019-03-27T19:28:18.756Z,10.80
2019-03-27T19:30:50.036Z,10.80
2019-03-27T19:33:21.568Z,10.80
2019-03-27T19:35:50.862Z,10.80
2019-03-27T19:38:22.142Z,10.80
2019-03-27T19:40:51.251Z,10.80
2019-03-27T19:43:23.450Z,10.80
2019-03-27T19:45:52.907Z,10.80
2019-03-27T19:48:22.732Z,10.70
2019-03-27T19:50:54.645Z,10.70
2019-03-27T19:53:26.787Z,10.70
2019-03-27T19:55:56.636Z,10.70
2019-03-27T19:58:25.455Z,10.60
2019-03-27T20:00:54.083Z,10.60
2019-03-27T20:03:22.804Z,10.60
2019-03-27T20:05:55.793Z,10.60
2019-03-27T20:08:41.013Z,10.70
2019-03-27T20:11:15.403Z,10.60
2019-03-27T20:13:46.961Z,10.50
2019-03-27T20:19:23.910Z,10.50
2019-03-27T20:21:52.619Z,10.50
2019-03-27T20:24:20.897Z,10.40
2019-03-27T20:27:27.680Z,10.50
2019-03-27T20:29:55.981Z,10.40
2019-03-27T20:32:24.099Z,10.50
2019-03-27T20:34:52.306Z,10.50
2019-03-27T20:37:21.147Z,10.50
2019-03-27T20:39:49.684Z,10.50
2019-03-27T20:42:24.097Z,10.50
2019-03-27T20:44:52.235Z,10.40
2019-03-27T20:47:32.829Z,10.40
2019-03-27T20:50:01.658Z,10.40
2019-03-27T20:52:34.800Z,10.40
2019-03-27T20:55:04.023Z,10.40
2019-03-27T20:57:32.312Z,10.40
2019-03-27T21:00:00.995Z,10.30
2019-03-27T21:02:29.363Z,10.40
2019-03-27T21:04:57.589Z,10.30
2019-03-27T21:07:34.198Z,10.30
2019-03-27T21:10:02.882Z,10.30
2019-03-27T21:12:33.030Z,10.30
2019-03-27T21:15:02.060Z,10.30
2019-03-27T21:17:40.071Z,10.30
2019-03-27T21:20:08.595Z,10.20
2019-03-27T21:22:37.213Z,10.20
2019-03-27T21:25:08.987Z,10.20
2019-03-27T21:27:38.964Z,10.20
2019-03-27T21:30:08.658Z,10.20
2019-03-27T21:32:37.432Z,10.20
2019-03-27T21:35:06.368Z,10.10
2019-03-27T21:37:39.113Z,10.10
2019-03-27T21:40:07.808Z,10.10
2019-03-27T21:42:36.240Z,10.10
2019-03-27T21:45:08.514Z,10.10
2019-03-27T21:47:42.355Z,10.10
2019-03-27T21:50:10.711Z,10.00
2019-03-27T21:52:38.953Z,10.00
2019-03-27T21:55:22.505Z,10.00
2019-03-27T21:57:54.342Z,10.00
2019-03-27T22:00:39.690Z,9.90
2019-03-27T22:03:08.301Z,9.90
2019-03-27T22:05:37.099Z,9.90
2019-03-27T22:08:14.366Z,9.80
2019-03-27T22:10:43.549Z,9.80
2019-03-27T22:13:11.771Z,9.80
2019-03-27T22:15:39.914Z,9.80
2019-03-27T22:18:10.333Z,9.80
2019-03-27T22:20:39.869Z,9.80
2019-03-27T22:23:27.375Z,9.70
2019-03-27T22:25:55.595Z,9.70
2019-03-27T22:28:25.661Z,9.70
2019-03-27T22:30:53.835Z,9.80
2019-03-27T22:33:24.300Z,9.80
2019-03-27T22:35:52.419Z,9.80
2019-03-27T22:38:32.542Z,9.80
2019-03-27T22:41:00.823Z,9.80
2019-03-27T22:43:28.989Z,9.80
2019-03-27T22:45:57.116Z,9.80
2019-03-27T22:48:25.853Z,9.80
2019-03-27T22:50:54.943Z,9.80
2019-03-27T22:53:23.065Z,9.80
2019-03-27T22:55:51.756Z,9.80
2019-03-27T22:58:19.884Z,9.80
2019-03-27T23:00:51.901Z,9.70
2019-03-27T23:03:19.999Z,9.70
2019-03-27T23:05:48.250Z,9.60
2019-03-27T23:08:19.418Z,9.60
2019-03-27T23:10:47.563Z,9.60
2019-03-27T23:13:15.671Z,9.60
2019-03-27T23:15:43.966Z,9.60
2019-03-27T23:18:12.471Z,9.50
2019-03-27T23:20:40.601Z,9.50
2019-03-27T23:23:08.747Z,9.50
2019-03-27T23:25:36.907Z,9.50
2019-03-27T23:28:14.233Z,9.50
2019-03-27T23:30:42.414Z,9.50
2019-03-27T23:33:10.540Z,9.50
2019-03-27T23:35:38.672Z,9.50
2019-03-27T23:38:06.774Z,9.40
2019-03-27T23:40:35.795Z,9.40
2019-03-27T23:43:04.234Z,9.30
2019-03-27T23:45:32.395Z,9.40
2019-03-27T23:48:03.953Z,9.30
2019-03-27T23:50:32.100Z,9.30
2019-03-27T23:53:00.632Z,9.30
2019-03-27T23:55:28.760Z,9.30
2019-03-27T23:57:56.887Z,9.30
